createdAt,value
2018-12-29T00:01:37.537Z,21.90
2018-12-29T00:04:08.010Z,22.73
2018-12-29T00:06:38.625Z,20.53
2018-12-29T00:09:09.492Z,20.53
2018-12-29T00:11:40.021Z,19.43
2018-12-29T00:14:10.589Z,16.93
2018-12-29T00:16:41.076Z,16.13
2018-12-29T00:19:11.645Z,22.10
2018-12-29T00:21:42.258Z,20.37
2018-12-29T00:24:12.849Z,19.47
2018-12-29T00:26:43.367Z,25.63
2018-12-29T00:29:14.054Z,26.50
2018-12-29T00:31:44.748Z,26.37
2018-12-29T00:34:15.338Z,24.10
2018-12-29T00:36:45.829Z,24.37
2018-12-29T00:39:16.332Z,24.17
2018-12-29T00:41:47.609Z,22.63
2018-12-29T00:44:18.071Z,18.47
2018-12-29T00:46:48.673Z,19.10
2018-12-29T00:49:19.247Z,15.13
2018-12-29T00:51:49.718Z,20.00
2018-12-29T00:54:20.216Z,16.37
2018-12-29T00:56:50.699Z,14.37
2018-12-29T00:59:21.144Z,16.60
2018-12-29T01:01:51.669Z,16.57
2018-12-29T01:04:22.162Z,15.13
2018-12-29T01:06:52.849Z,13.37
2018-12-29T01:09:23.188Z,12.63
2018-12-29T01:11:53.806Z,12.57
2018-12-29T01:14:24.224Z,13.13
2018-12-29T01:16:54.833Z,10.73
2018-12-29T01:19:25.470Z,9.93
2018-12-29T01:21:56.073Z,12.07
2018-12-29T01:24:26.637Z,12.87
2018-12-29T01:26:57.198Z,9.97
2018-12-29T01:29:27.808Z,8.47
2018-12-29T01:31:58.247Z,11.53
2018-12-29T01:34:28.793Z,10.97
2018-12-29T01:36:59.398Z,11.87
2018-12-29T01:39:29.822Z,9.87
2018-12-29T01:42:00.359Z,10.83
2018-12-29T01:44:30.968Z,8.30
2018-12-29T01:47:01.458Z,14.23
2018-12-29T01:49:31.919Z,13.37
2018-12-29T01:52:02.547Z,11.50
2018-12-29T01:54:33.220Z,12.33
2018-12-29T01:57:03.713Z,13.10
2018-12-29T01:59:34.239Z,10.43
2018-12-29T02:02:04.954Z,12.40
2018-12-29T02:04:35.500Z,9.50
2018-12-29T02:07:06.098Z,7.23
2018-12-29T02:09:36.619Z,6.20
2018-12-29T02:12:26.248Z,4.40
2018-12-29T02:14:57.096Z,7.57
2018-12-29T02:17:27.808Z,6.37
2018-12-29T02:19:58.277Z,5.07
2018-12-29T02:22:28.819Z,5.07
2018-12-29T02:24:59.249Z,4.37
2018-12-29T02:27:29.789Z,5.30
2018-12-29T02:30:00.367Z,5.00
2018-12-29T02:32:30.771Z,4.40
2018-12-29T02:35:01.337Z,7.10
2018-12-29T02:37:31.797Z,6.83
2018-12-29T02:40:02.154Z,8.63
2018-12-29T02:42:32.538Z,7.17
2018-12-29T02:45:02.969Z,6.97
2018-12-29T02:47:33.389Z,9.87
2018-12-29T02:50:03.797Z,7.33
2018-12-29T02:52:34.318Z,8.73
2018-12-29T02:55:05.093Z,11.73
2018-12-29T02:57:35.587Z,9.13
2018-12-29T03:00:06.443Z,10.63
2018-12-29T03:02:37.257Z,10.17
2018-12-29T03:05:07.888Z,9.77
2018-12-29T03:07:38.293Z,11.77
2018-12-29T03:10:08.810Z,13.00
2018-12-29T03:12:39.377Z,14.83
2018-12-29T03:15:10.003Z,20.00
2018-12-29T03:17:40.455Z,29.73
2018-12-29T03:20:11.018Z,22.43
2018-12-29T03:22:41.500Z,24.83
2018-12-29T03:25:12.054Z,15.43
2018-12-29T03:27:42.830Z,13.23
2018-12-29T03:30:13.363Z,11.47
2018-12-29T03:32:43.890Z,15.00
2018-12-29T03:35:14.692Z,16.37
2018-12-29T03:37:45.204Z,16.30
2018-12-29T03:40:15.801Z,13.37
2018-12-29T03:42:46.508Z,18.03
2018-12-29T03:45:17.159Z,13.67
2018-12-29T03:47:48.060Z,14.63
2018-12-29T03:50:18.681Z,14.13
2018-12-29T03:52:49.121Z,13.97
2018-12-29T03:55:19.718Z,16.50
2018-12-29T03:57:50.471Z,16.67
2018-12-29T04:00:21.012Z,15.27
2018-12-29T04:02:51.700Z,17.00
2018-12-29T04:05:22.204Z,15.70
2018-12-29T04:07:52.761Z,15.83
2018-12-29T04:10:23.357Z,16.03
2018-12-29T04:12:59.359Z,14.20
2018-12-29T04:15:30.066Z,19.93
2018-12-29T04:18:00.522Z,18.43
2018-12-29T04:20:31.038Z,20.80
2018-12-29T04:23:01.680Z,22.47
2018-12-29T04:25:32.173Z,19.20
2018-12-29T04:28:03.000Z,20.60
2018-12-29T04:30:33.569Z,23.43
2018-12-29T04:33:04.098Z,23.47
2018-12-29T04:35:34.497Z,25.40
2018-12-29T04:38:05.046Z,22.97
2018-12-29T04:40:35.500Z,23.77
2018-12-29T04:43:06.041Z,26.33
2018-12-29T04:45:36.608Z,24.53
2018-12-29T04:48:07.437Z,24.33
2018-12-29T04:50:38.026Z,25.17
2018-12-29T04:53:08.472Z,23.37
2018-12-29T04:55:39.010Z,26.03
2018-12-29T04:58:09.488Z,19.73
2018-12-29T05:00:40.050Z,26.07
2018-12-29T05:03:10.571Z,24.73
2018-12-29T05:05:41.116Z,25.50
2018-12-29T05:08:11.890Z,28.80
2018-12-29T05:10:42.282Z,28.20
2018-12-29T05:13:12.886Z,24.93
2018-12-29T05:15:43.266Z,27.57
2018-12-29T05:18:13.841Z,25.90
2018-12-29T05:20:44.412Z,27.30
2018-12-29T05:23:15.059Z,23.20
2018-12-29T05:25:45.477Z,28.97
2018-12-29T05:28:15.972Z,31.63
2018-12-29T05:30:46.493Z,31.77
2018-12-29T05:33:16.853Z,28.73
2018-12-29T05:35:47.371Z,35.17
2018-12-29T05:38:17.974Z,35.70
2018-12-29T05:40:48.577Z,34.13
2018-12-29T05:43:19.056Z,29.30
2018-12-29T05:45:49.407Z,29.43
2018-12-29T05:48:19.840Z,28.67
2018-12-29T05:50:50.258Z,34.50
2018-12-29T05:53:20.786Z,31.80
2018-12-29T05:55:51.262Z,34.60
2018-12-29T05:58:21.659Z,34.37
2018-12-29T06:00:52.187Z,32.03
2018-12-29T06:03:22.766Z,29.87
2018-12-29T06:05:53.124Z,31.60
2018-12-29T06:08:23.473Z,32.50
2018-12-29T06:10:54.632Z,35.00
2018-12-29T06:13:25.076Z,37.47
2018-12-29T06:15:55.622Z,38.63
2018-12-29T06:18:26.180Z,33.73
2018-12-29T06:20:56.750Z,30.60
2018-12-29T06:23:27.330Z,33.17
2018-12-29T06:25:57.760Z,33.07
2018-12-29T06:28:28.279Z,34.17
2018-12-29T06:30:58.717Z,33.17
2018-12-29T06:33:29.147Z,35.27
2018-12-29T06:35:59.649Z,36.87
2018-12-29T06:38:30.006Z,37.23
2018-12-29T06:41:00.677Z,35.60
2018-12-29T06:43:31.086Z,34.33
2018-12-29T06:46:01.618Z,32.83
2018-12-29T06:48:32.039Z,36.93
2018-12-29T06:51:02.455Z,39.73
2018-12-29T06:53:32.882Z,41.60
2018-12-29T06:56:03.304Z,42.33
2018-12-29T06:58:33.732Z,43.37
2018-12-29T07:01:04.265Z,40.73
2018-12-29T07:03:34.694Z,51.07
2018-12-29T07:06:05.109Z,51.50
2018-12-29T07:08:35.588Z,46.90
2018-12-29T07:11:06.249Z,49.73
2018-12-29T07:13:36.879Z,51.63
2018-12-29T07:16:07.476Z,52.37
2018-12-29T07:18:38.081Z,51.60
2018-12-29T07:21:08.587Z,50.73
2018-12-29T07:23:39.020Z,50.57
2018-12-29T07:26:09.453Z,53.10
2018-12-29T07:28:40.287Z,52.10
2018-12-29T07:31:12.655Z,53.63
2018-12-29T07:33:43.143Z,52.27
2018-12-29T07:36:13.939Z,51.47
2018-12-29T07:38:44.394Z,48.67
2018-12-29T07:41:14.940Z,53.03
2018-12-29T07:43:45.529Z,50.77
2018-12-29T07:46:16.072Z,47.10
2018-12-29T07:48:46.616Z,46.63
2018-12-29T07:51:17.096Z,46.23
2018-12-29T07:53:47.668Z,44.97
2018-12-29T07:56:18.024Z,48.50
2018-12-29T07:58:48.527Z,52.10
2018-12-29T08:01:19.088Z,49.97
2018-12-29T08:03:49.707Z,52.43
2018-12-29T08:06:20.132Z,47.17
2018-12-29T08:08:50.595Z,50.30
2018-12-29T08:11:21.031Z,46.33
2018-12-29T08:13:51.667Z,41.50
2018-12-29T08:16:22.137Z,41.93
2018-12-29T08:18:52.939Z,43.97
2018-12-29T08:21:23.862Z,46.87
2018-12-29T08:23:54.364Z,46.17
2018-12-29T08:26:25.037Z,48.20
2018-12-29T08:28:55.569Z,45.83
2018-12-29T08:31:25.978Z,47.13
2018-12-29T08:33:56.449Z,46.90
2018-12-29T08:36:26.986Z,50.10
2018-12-29T08:38:57.356Z,53.30
2018-12-29T08:41:27.929Z,51.80
2018-12-29T08:43:58.506Z,52.90
2018-12-29T08:46:29.186Z,52.67
2018-12-29T08:48:59.795Z,56.00
2018-12-29T08:51:30.413Z,56.07
2018-12-29T08:54:00.920Z,60.17
2018-12-29T08:56:31.446Z,63.27
2018-12-29T08:59:01.879Z,59.97
2018-12-29T09:01:32.348Z,59.57
2018-12-29T09:04:02.712Z,57.70
2018-12-29T09:06:33.061Z,63.43
2018-12-29T09:09:04.506Z,58.50
2018-12-29T09:11:34.914Z,64.07
2018-12-29T09:14:06.243Z,61.60
2018-12-29T09:16:37.242Z,65.37
2018-12-29T09:19:07.780Z,59.77
2018-12-29T09:21:38.456Z,64.17
2018-12-29T09:24:09.179Z,54.67
2018-12-29T09:26:41.356Z,59.40
2018-12-29T09:29:12.147Z,53.57
2018-12-29T09:31:42.692Z,56.93
2018-12-29T09:34:13.123Z,58.87
2018-12-29T09:36:43.803Z,58.93
2018-12-29T09:39:15.284Z,54.70
2018-12-29T09:41:45.927Z,55.30
2018-12-29T09:44:16.537Z,53.13
2018-12-29T09:46:47.185Z,56.50
2018-12-29T09:49:17.727Z,52.97
2018-12-29T09:51:48.396Z,51.67
2018-12-29T09:54:19.544Z,52.40
2018-12-29T09:56:50.216Z,49.67
2018-12-29T09:59:20.797Z,43.07
2018-12-29T10:01:51.528Z,46.33
2018-12-29T10:04:22.055Z,46.30
2018-12-29T10:06:52.645Z,54.17
2018-12-29T10:09:23.096Z,52.10
2018-12-29T10:11:53.613Z,50.43
2018-12-29T10:14:24.159Z,56.20
2018-12-29T10:16:54.915Z,52.27
2018-12-29T10:19:25.499Z,51.43
2018-12-29T10:21:56.196Z,52.83
2018-12-29T10:24:26.901Z,59.57
2018-12-29T10:26:57.462Z,56.60
2018-12-29T10:29:29.397Z,55.90
2018-12-29T10:32:00.001Z,52.93
2018-12-29T10:34:30.777Z,54.07
2018-12-29T10:37:02.118Z,55.37
2018-12-29T10:39:32.709Z,52.00
2018-12-29T10:42:03.187Z,46.87
2018-12-29T10:44:33.871Z,50.90
2018-12-29T10:47:04.706Z,46.67
2018-12-29T10:49:35.162Z,43.97
2018-12-29T10:52:05.786Z,53.20
2018-12-29T10:54:36.269Z,42.03
2018-12-29T10:57:06.728Z,40.50
2018-12-29T10:59:37.326Z,41.13
2018-12-29T11:02:07.995Z,34.67
2018-12-29T11:04:38.453Z,36.57
2018-12-29T11:07:08.957Z,38.03
2018-12-29T11:09:39.425Z,34.23
2018-12-29T11:12:09.967Z,36.60
2018-12-29T11:14:40.537Z,38.83
2018-12-29T11:17:11.026Z,36.53
2018-12-29T11:19:41.647Z,44.47
2018-12-29T11:22:12.130Z,33.07
2018-12-29T11:24:42.828Z,31.77
2018-12-29T11:27:13.359Z,34.23
2018-12-29T11:29:43.876Z,34.10
2018-12-29T11:32:14.396Z,37.87
2018-12-29T11:34:45.096Z,37.50
2018-12-29T11:37:15.611Z,41.43
2018-12-29T11:39:46.066Z,39.33
2018-12-29T11:42:16.575Z,42.47
2018-12-29T11:44:47.167Z,46.60
2018-12-29T11:47:17.746Z,42.53
2018-12-29T11:49:48.420Z,58.17
2018-12-29T11:52:18.969Z,50.97
2018-12-29T11:54:49.580Z,47.47
2018-12-29T11:57:20.099Z,54.03
2018-12-29T11:59:50.566Z,46.90
2018-12-29T12:02:24.571Z,49.87
2018-12-29T12:04:53.355Z,47.23
2018-12-29T12:07:24.045Z,55.50
2018-12-29T12:09:54.814Z,51.57
2018-12-29T12:12:25.424Z,49.17
2018-12-29T12:14:56.422Z,44.87
2018-12-29T12:17:27.096Z,48.33
2018-12-29T12:19:57.727Z,51.33
2018-12-29T12:22:28.366Z,52.87
2018-12-29T12:24:59.135Z,52.57
2018-12-29T12:27:29.685Z,57.40
2018-12-29T12:30:00.666Z,56.77
2018-12-29T12:32:31.347Z,58.07
2018-12-29T12:35:02.320Z,55.90
2018-12-29T12:37:32.820Z,57.07
2018-12-29T12:40:03.446Z,53.87
2018-12-29T12:42:34.168Z,49.87
2018-12-29T12:45:05.327Z,53.73
2018-12-29T12:47:35.981Z,56.90
2018-12-29T12:50:06.781Z,54.77
2018-12-29T12:52:37.577Z,52.93
2018-12-29T12:55:08.406Z,58.53
2018-12-29T12:57:39.075Z,54.73
2018-12-29T13:00:10.858Z,49.87
2018-12-29T13:02:41.285Z,50.03
2018-12-29T13:05:11.926Z,47.97
2018-12-29T13:07:42.486Z,53.30
2018-12-29T13:10:13.097Z,53.17
2018-12-29T13:12:43.616Z,55.77
2018-12-29T13:15:14.181Z,57.73
2018-12-29T13:17:44.746Z,51.20
2018-12-29T13:20:15.445Z,57.27
2018-12-29T13:22:46.309Z,54.80
2018-12-29T13:25:17.034Z,51.00
2018-12-29T13:27:47.730Z,53.53
2018-12-29T13:30:18.319Z,56.53
2018-12-29T13:32:48.962Z,47.83
2018-12-29T13:35:19.956Z,51.90
2018-12-29T13:37:50.586Z,52.73
2018-12-29T13:40:21.184Z,45.37
2018-12-29T13:42:51.859Z,48.30
2018-12-29T13:45:22.334Z,44.13
2018-12-29T13:47:53.090Z,52.50
2018-12-29T13:50:23.739Z,45.43
2018-12-29T13:52:54.348Z,44.77
2018-12-29T13:55:24.975Z,46.63
2018-12-29T13:57:55.575Z,51.50
2018-12-29T14:00:26.204Z,50.27
2018-12-29T14:02:56.794Z,49.93
2018-12-29T14:05:27.796Z,59.07
2018-12-29T14:07:58.325Z,51.13
2018-12-29T14:10:28.956Z,52.40
2018-12-29T14:12:59.510Z,54.00
2018-12-29T14:15:30.145Z,49.40
2018-12-29T14:18:00.818Z,51.93
2018-12-29T14:20:31.354Z,53.23
2018-12-29T14:23:01.917Z,53.87
2018-12-29T14:25:32.639Z,52.47
2018-12-29T14:28:03.319Z,48.63
2018-12-29T14:30:33.790Z,49.37
2018-12-29T14:33:04.373Z,51.93
2018-12-29T14:35:35.179Z,52.60
2018-12-29T14:38:06.140Z,51.20
2018-12-29T14:40:36.795Z,50.33
2018-12-29T14:43:07.289Z,47.37
2018-12-29T14:45:37.918Z,46.63
2018-12-29T14:48:08.970Z,48.43
2018-12-29T14:50:39.462Z,40.60
2018-12-29T14:53:10.025Z,42.43
2018-12-29T14:55:40.595Z,42.00
2018-12-29T14:58:11.208Z,46.73
2018-12-29T15:00:41.745Z,43.27
2018-12-29T15:03:12.238Z,44.73
2018-12-29T15:05:43.045Z,45.63
2018-12-29T15:08:13.596Z,44.30
2018-12-29T15:10:44.052Z,49.53
2018-12-29T15:13:14.816Z,48.73
2018-12-29T15:15:45.420Z,48.70
2018-12-29T15:18:16.385Z,51.50
2018-12-29T15:20:47.523Z,51.97
2018-12-29T15:23:18.669Z,54.37
2018-12-29T15:25:49.305Z,57.60
2018-12-29T15:28:20.000Z,59.90
2018-12-29T15:30:50.886Z,57.37
2018-12-29T15:33:21.630Z,63.37
2018-12-29T15:35:52.281Z,72.37
2018-12-29T15:38:22.779Z,74.77
2018-12-29T15:40:53.859Z,54.83
2018-12-29T15:43:24.396Z,57.90
2018-12-29T15:45:54.857Z,52.60
2018-12-29T15:48:25.751Z,49.63
2018-12-29T15:50:56.286Z,53.87
2018-12-29T15:53:26.845Z,51.03
2018-12-29T15:55:57.675Z,54.50
2018-12-29T15:58:28.266Z,58.80
2018-12-29T16:00:58.880Z,57.63
2018-12-29T16:03:29.435Z,59.67
2018-12-29T16:06:00.275Z,59.30
2018-12-29T16:08:31.186Z,60.13
2018-12-29T16:11:01.765Z,58.20
2018-12-29T16:13:32.468Z,64.37
2018-12-29T16:16:03.096Z,64.07
2018-12-29T16:18:33.967Z,68.13
2018-12-29T16:21:04.906Z,64.73
2018-12-29T16:23:35.715Z,68.37
2018-12-29T16:26:12.675Z,67.60
2018-12-29T16:28:38.705Z,60.40
2018-12-29T16:31:09.548Z,63.67
2018-12-29T16:33:41.769Z,58.43
2018-12-29T16:36:12.698Z,59.67
2018-12-29T16:38:43.250Z,63.63
2018-12-29T16:41:14.039Z,60.00
2018-12-29T16:43:44.665Z,58.90
2018-12-29T16:46:15.283Z,63.50
2018-12-29T16:48:45.915Z,65.07
2018-12-29T16:51:16.834Z,63.33
2018-12-29T16:53:47.733Z,71.33
2018-12-29T16:56:18.284Z,69.47
2018-12-29T16:58:48.856Z,65.10
2018-12-29T17:01:19.428Z,72.00
2018-12-29T17:03:50.274Z,69.47
2018-12-29T17:06:20.759Z,110.27
2018-12-29T17:08:51.335Z,145.90
2018-12-29T17:11:21.965Z,78.73
2018-12-29T17:13:52.496Z,72.37
2018-12-29T17:16:23.046Z,76.07
2018-12-29T17:18:53.735Z,110.60
2018-12-29T17:21:24.368Z,233.30
2018-12-29T17:23:55.040Z,139.80
2018-12-29T17:26:26.089Z,92.60
2018-12-29T17:28:56.711Z,89.07
2018-12-29T17:31:27.476Z,79.10
2018-12-29T17:33:58.135Z,78.43
2018-12-29T17:36:29.145Z,76.83
2018-12-29T17:38:59.761Z,77.07
2018-12-29T17:41:30.399Z,67.07
2018-12-29T17:44:01.114Z,63.90
2018-12-29T17:46:31.965Z,65.27
2018-12-29T17:49:02.615Z,71.03
2018-12-29T17:51:33.273Z,60.03
2018-12-29T17:54:03.987Z,65.13
2018-12-29T17:56:36.235Z,73.87
2018-12-29T17:59:07.202Z,75.10
2018-12-29T18:01:37.866Z,100.47
2018-12-29T18:04:08.436Z,127.00
2018-12-29T18:06:39.134Z,72.67
2018-12-29T18:09:09.812Z,68.10
2018-12-29T18:11:40.401Z,66.70
2018-12-29T18:14:11.033Z,64.97
2018-12-29T18:16:41.855Z,75.47
2018-12-29T18:19:12.931Z,74.53
2018-12-29T18:21:43.460Z,72.23
2018-12-29T18:24:14.100Z,70.80
2018-12-29T18:26:44.830Z,71.20
2018-12-29T18:29:16.005Z,72.13
2018-12-29T18:31:46.714Z,77.33
2018-12-29T18:34:17.417Z,73.47
2018-12-29T18:36:48.287Z,80.70
2018-12-29T18:39:19.037Z,72.00
2018-12-29T18:41:49.696Z,72.10
2018-12-29T18:44:20.437Z,63.87
2018-12-29T18:46:51.494Z,64.00
2018-12-29T18:49:22.167Z,60.30
2018-12-29T18:51:52.920Z,61.90
2018-12-29T18:54:23.521Z,107.67
2018-12-29T18:56:54.188Z,122.30
2018-12-29T18:59:24.885Z,65.00
2018-12-29T19:01:57.820Z,60.03
2018-12-29T19:04:28.133Z,60.87
2018-12-29T19:06:58.917Z,61.77
2018-12-29T19:09:30.684Z,62.57
2018-12-29T19:12:01.501Z,64.17
2018-12-29T19:14:32.493Z,61.30
2018-12-29T19:17:03.235Z,62.97
2018-12-29T19:19:36.598Z,52.73
2018-12-29T19:22:07.455Z,54.33
2018-12-29T19:24:38.300Z,54.77
2018-12-29T19:27:09.405Z,54.00
2018-12-29T19:29:40.533Z,53.33
2018-12-29T19:32:11.585Z,52.90
2018-12-29T19:34:43.089Z,49.13
2018-12-29T19:37:15.396Z,45.27
2018-12-29T19:39:51.770Z,42.10
2018-12-29T19:42:26.484Z,39.83
2018-12-29T19:44:59.059Z,43.10
2018-12-29T19:47:29.794Z,42.80
2018-12-29T19:50:00.808Z,43.53
2018-12-29T19:52:32.569Z,41.47
2018-12-29T19:55:04.346Z,42.07
2018-12-29T19:57:35.479Z,38.23
2018-12-29T20:00:09.964Z,40.80
2018-12-29T20:02:41.122Z,43.57
2018-12-29T20:05:13.440Z,51.60
2018-12-29T20:07:44.699Z,40.43
2018-12-29T20:10:15.409Z,114.97
2018-12-29T20:12:48.902Z,226.30
2018-12-29T20:15:21.855Z,176.33
2018-12-29T20:17:55.824Z,320.93
2018-12-29T20:20:27.009Z,359.93
2018-12-29T20:22:57.814Z,217.80
2018-12-29T20:25:29.675Z,225.70
2018-12-29T20:28:04.253Z,604.87
2018-12-29T20:30:35.224Z,398.80
2018-12-29T20:33:07.114Z,202.57
2018-12-29T20:35:40.090Z,127.07
2018-12-29T20:38:10.798Z,53.93
2018-12-29T20:40:41.536Z,40.20
2018-12-29T20:43:14.070Z,40.37
2018-12-29T20:45:44.826Z,38.57
2018-12-29T20:48:20.263Z,43.40
2018-12-29T20:50:50.983Z,39.27
2018-12-29T20:53:23.955Z,39.17
2018-12-29T20:56:00.570Z,41.33
2018-12-29T20:58:38.551Z,40.97
2018-12-29T21:01:12.327Z,45.43
2018-12-29T21:03:43.231Z,40.67
2018-12-29T21:06:14.985Z,42.87
2018-12-29T21:08:45.678Z,45.93
2018-12-29T21:11:16.552Z,40.87
2018-12-29T21:13:47.330Z,45.67
2018-12-29T21:16:17.915Z,41.70
2018-12-29T21:18:56.450Z,42.83
2018-12-29T21:21:28.214Z,45.93
2018-12-29T21:23:58.993Z,44.90
2018-12-29T21:26:30.581Z,46.93
2018-12-29T21:29:02.795Z,49.80
2018-12-29T21:31:33.651Z,42.40
2018-12-29T21:34:07.563Z,40.07
2018-12-29T21:36:38.342Z,36.97
2018-12-29T21:39:10.875Z,38.43
2018-12-29T21:41:46.903Z,38.13
2018-12-29T21:44:18.789Z,33.87
2018-12-29T21:46:52.929Z,36.53
2018-12-29T21:49:23.643Z,30.63
2018-12-29T21:51:54.343Z,29.40
2018-12-29T21:54:25.034Z,37.73
2018-12-29T21:56:55.803Z,30.43
2018-12-29T21:59:26.323Z,32.53
2018-12-29T22:01:56.939Z,29.60
2018-12-29T22:04:27.555Z,30.13
2018-12-29T22:06:58.143Z,28.13
2018-12-29T22:09:28.812Z,28.63
2018-12-29T22:11:59.334Z,30.27
2018-12-29T22:14:30.194Z,48.27
2018-12-29T22:17:01.218Z,51.67
2018-12-29T22:19:32.949Z,42.47
2018-12-29T22:22:04.834Z,42.03
2018-12-29T22:24:35.494Z,46.50
2018-12-29T22:27:06.290Z,55.33
2018-12-29T22:29:37.035Z,57.87
2018-12-29T22:32:07.684Z,56.13
2018-12-29T22:34:38.329Z,54.67
2018-12-29T22:37:08.957Z,56.57
2018-12-29T22:39:39.525Z,47.07
2018-12-29T22:42:10.257Z,42.87
2018-12-29T22:44:41.010Z,45.87
2018-12-29T22:47:11.638Z,44.13
2018-12-29T22:49:42.608Z,37.40
2018-12-29T22:52:13.337Z,34.00
2018-12-29T22:54:44.032Z,32.77
2018-12-29T22:57:14.726Z,32.03
2018-12-29T22:59:45.381Z,29.83
2018-12-29T23:02:15.936Z,30.83
2018-12-29T23:04:46.685Z,31.23
2018-12-29T23:07:17.603Z,28.90
2018-12-29T23:09:48.338Z,28.40
2018-12-29T23:12:19.115Z,26.43
2018-12-29T23:14:50.548Z,27.77
2018-12-29T23:17:21.199Z,27.83
2018-12-29T23:19:51.805Z,25.73
2018-12-29T23:22:22.470Z,29.57
2018-12-29T23:24:53.110Z,30.13
2018-12-29T23:27:23.735Z,28.40
2018-12-29T23:29:54.266Z,25.90
2018-12-29T23:32:36.940Z,24.43
2018-12-29T23:35:07.744Z,26.73
2018-12-29T23:37:38.498Z,25.77
2018-12-29T23:40:09.497Z,26.80
2018-12-29T23:42:40.025Z,26.57
2018-12-29T23:45:10.551Z,28.93
2018-12-29T23:47:41.347Z,24.77
2018-12-29T23:50:12.085Z,28.13
2018-12-29T23:52:42.954Z,26.10
2018-12-29T23:55:13.476Z,25.80
2018-12-29T23:57:44.005Z,28.67
